Manilla, Indiana
Current Conditions -  °F | °C
As of 8:53 AM on Friday 31 Oct 2014 (Local Time) from KGEZ Reporting Station
Overcast Overcast  
Wind Chill: 44°   Ceiling: 6000
Heat Index: 46°   Visibility: 10mi
Dew Point: 39°   Wind: 5mph
Humidity: 76%   Direction: 260°W
Pressure: 29.98"   Gusts: NA
Location:  39.57°N, 85.62°W
Report Text: KGEZ 311253Z AUTO 26004KT 10SM FEW037 OVC060 08/04 A2998 RMK AO2 SLP153 T00780039
Loading
Personal Weather Stations






























Interactive Weather Map New forecast layout! Learn more

10-Day Weather Forecast

Advertisements
Track Severe Weather on mobile